Time;durP1;ratioP1;P1;durP2;ratioP2;P2;SDS_P1;SDS_P2;PMS_P1;PMS_P2;Temp;Humidity;BMP_temperature;BMP_pressure;BME280_temperature;BME280_humidity;BME280_pressure;Samples;Min_cycle;Max_cycle;Signal;HPM_P1;HPM_P2
2023/08/18 00:00:43;;;;;;;17.25;10.93;;;;;;;18.06;100.00;101924.72;6103268;19;20014;-72
2023/08/18 00:02:48;;;;;;;20.02;12.05;;;;;;;18.11;99.93;101922.66;6104790;19;20037;-72
2023/08/18 00:04:56;;;;;;;20.30;10.85;;;;;;;18.00;100.00;101920.59;6105814;19;20078;-72
2023/08/18 00:06:59;;;;;;;18.55;9.98;;;;;;;18.09;100.00;101916.56;6103722;19;20007;-72
2023/08/18 00:09:07;;;;;;;17.98;10.68;;;;;;;18.04;99.84;101916.84;6108126;19;20044;-72
2023/08/18 00:11:12;;;;;;;17.67;10.18;;;;;;;18.07;99.87;101910.50;6105783;19;20006;-72
2023/08/18 00:13:18;;;;;;;18.55;10.75;;;;;;;18.01;99.69;101910.81;6104892;19;20050;-72
2023/08/18 00:15:23;;;;;;;20.55;10.70;;;;;;;18.05;99.27;101920.34;6107993;19;20014;-72
2023/08/18 00:17:29;;;;;;;15.93;9.85;;;;;;;18.05;99.31;101915.03;6099958;19;20010;-72
2023/08/18 00:19:34;;;;;;;22.42;10.45;;;;;;;18.03;99.38;101908.94;6094727;19;20027;-72
2023/08/18 00:21:40;;;;;;;19.42;10.98;;;;;;;18.13;98.74;101908.34;6096452;19;20014;-72
2023/08/18 00:23:45;;;;;;;19.40;10.07;;;;;;;18.08;98.72;101909.53;6100243;19;20038;-74
2023/08/18 00:25:54;;;;;;;17.80;10.13;;;;;;;18.05;98.85;101901.75;6096719;19;20031;-72
2023/08/18 00:28:00;;;;;;;17.55;10.40;;;;;;;18.02;99.16;101897.44;6099115;19;20417;-73
2023/08/18 00:30:05;;;;;;;16.38;9.77;;;;;;;18.02;98.89;101892.13;6099422;19;20006;-74
2023/08/18 00:32:10;;;;;;;16.10;10.30;;;;;;;18.03;98.96;101895.63;6096684;19;20006;-75
2023/08/18 00:34:15;;;;;;;18.23;10.25;;;;;;;18.04;99.14;101894.72;6098294;19;20010;-73
2023/08/18 00:36:22;;;;;;;17.75;10.27;;;;;;;18.02;98.53;101897.44;6086922;19;20007;-72
2023/08/18 00:38:28;;;;;;;17.15;9.95;;;;;;;18.03;98.36;101892.97;6097019;19;20003;-73
2023/08/18 00:40:33;;;;;;;16.60;9.90;;;;;;;18.06;98.25;101896.34;6092258;19;20333;-71
2023/08/18 00:42:40;;;;;;;19.17;10.15;;;;;;;18.11;98.09;101896.06;6094668;19;20034;-72
2023/08/18 00:44:46;;;;;;;17.25;9.00;;;;;;;18.09;97.83;101898.84;6096964;19;20011;-72
2023/08/18 00:46:51;;;;;;;17.85;10.55;;;;;;;18.08;97.62;101894.44;6093977;19;20608;-73
2023/08/18 00:49:01;;;;;;;16.67;10.57;;;;;;;18.06;96.95;101893.69;6094721;19;20028;-73
2023/08/18 00:51:07;;;;;;;17.88;9.65;;;;;;;18.08;97.05;101888.28;6091542;19;20003;-72
2023/08/18 00:53:10;;;;;;;16.50;8.73;;;;;;;18.12;97.09;101895.16;6091858;19;20389;-72
2023/08/18 00:55:15;;;;;;;17.67;9.60;;;;;;;18.09;97.11;101893.50;6097183;19;20097;-73
2023/08/18 00:57:22;;;;;;;16.17;9.95;;;;;;;18.12;96.41;101889.81;6089289;19;20774;-73
2023/08/18 00:59:31;;;;;;;17.48;9.90;;;;;;;18.05;96.60;101885.78;6092180;19;20010;-73
2023/08/18 01:01:34;;;;;;;15.82;9.02;;;;;;;18.07;96.90;101881.25;6092595;19;20118;-73
2023/08/18 01:03:40;;;;;;;15.88;9.27;;;;;;;18.01;97.37;101884.22;6092545;19;20393;-73
2023/08/18 01:05:45;;;;;;;17.17;9.30;;;;;;;18.06;97.03;101871.53;6094833;19;20102;-72
2023/08/18 01:07:50;;;;;;;18.60;10.35;;;;;;;18.04;96.83;101881.41;6100359;19;20490;-73
2023/08/18 01:09:57;;;;;;;16.38;9.90;;;;;;;18.04;96.65;101884.06;6097468;19;20015;-74
2023/08/18 01:12:15;;;;;;;16.90;9.93;;;;;;;17.99;97.13;101877.19;6101689;19;20019;-74
2023/08/18 01:14:34;;;;;;;17.98;10.63;;;;;;;18.04;96.69;101878.75;6100445;19;20014;-73
2023/08/18 01:16:51;;;;;;;18.63;10.27;;;;;;;18.05;96.82;101883.13;6095855;19;20087;-72
2023/08/18 01:18:59;;;;;;;17.48;9.73;;;;;;;17.99;96.72;101881.66;6095834;19;20006;-72
2023/08/18 01:21:06;;;;;;;17.10;9.65;;;;;;;18.03;96.62;101882.34;6095592;19;20498;-72
2023/08/18 01:23:14;;;;;;;17.50;9.70;;;;;;;17.99;96.61;101890.50;6093792;19;20013;-73
2023/08/18 01:25:19;;;;;;;15.98;9.38;;;;;;;17.98;96.57;101885.25;6093042;19;20060;-71
2023/08/18 01:27:24;;;;;;;13.98;9.32;;;;;;;17.90;96.73;101885.66;6097691;19;20031;-73
2023/08/18 01:29:30;;;;;;;15.75;8.20;;;;;;;17.96;96.05;101885.34;6097595;19;25134;-73
2023/08/18 01:31:39;;;;;;;14.30;8.45;;;;;;;17.94;95.39;101879.25;6099645;19;20330;-73
2023/08/18 01:33:56;;;;;;;14.77;8.40;;;;;;;17.95;95.51;101880.09;6093314;19;20468;-72
2023/08/18 01:36:04;;;;;;;14.73;8.38;;;;;;;17.93;95.44;101888.19;6095116;19;20007;-72
2023/08/18 01:38:11;;;;;;;13.25;7.93;;;;;;;17.86;95.68;101880.63;6098162;19;20010;-72
2023/08/18 01:40:20;;;;;;;16.98;9.65;;;;;;;17.86;95.87;101876.16;6098454;19;20003;-72
2023/08/18 01:42:29;;;;;;;15.50;8.98;;;;;;;17.80;96.24;101871.19;6097295;19;20014;-72
2023/08/18 01:44:34;;;;;;;16.50;9.00;;;;;;;17.77;96.33;101863.31;6096797;19;20033;-72
2023/08/18 01:46:39;;;;;;;14.77;8.80;;;;;;;17.80;96.15;101855.22;6095476;19;20093;-72
2023/08/18 01:48:45;;;;;;;13.98;7.78;;;;;;;17.77;96.33;101856.22;6091007;19;20028;-72
2023/08/18 01:50:50;;;;;;;15.73;8.88;;;;;;;17.74;96.60;101861.69;6097693;19;20803;-72
2023/08/18 01:52:55;;;;;;;14.50;8.63;;;;;;;17.69;96.73;101860.22;6090584;19;20010;-72
2023/08/18 01:55:01;;;;;;;15.50;9.18;;;;;;;17.71;96.69;101856.53;6095459;19;20035;-73
2023/08/18 01:57:06;;;;;;;16.17;8.82;;;;;;;17.65;97.38;101864.84;6091632;19;20471;-72
2023/08/18 01:59:11;;;;;;;15.10;8.27;;;;;;;17.61;97.42;101857.97;6094127;19;20003;-73
2023/08/18 02:01:16;;;;;;;15.75;8.75;;;;;;;17.54;97.88;101860.13;6094038;19;20006;-74
2023/08/18 02:03:18;;;;;;;14.55;8.57;;;;;;;17.57;97.63;101860.91;6091017;19;20136;-72
2023/08/18 02:05:28;;;;;;;14.55;8.18;;;;;;;17.50;97.59;101855.88;6091644;19;20011;-74
2023/08/18 02:07:36;;;;;;;14.73;8.30;;;;;;;17.46;98.06;101857.00;6092756;19;20014;-74
2023/08/18 02:09:41;;;;;;;13.38;7.78;;;;;;;17.46;97.91;101857.00;6094189;19;20100;-72
2023/08/18 02:11:46;;;;;;;13.38;8.32;;;;;;;17.50;97.82;101858.53;6093141;19;20002;-72
2023/08/18 02:13:54;;;;;;;15.90;9.18;;;;;;;17.37;98.01;101846.84;6094497;19;20496;-74
2023/08/18 02:15:59;;;;;;;15.25;8.10;;;;;;;17.49;97.54;101850.69;6095788;19;20082;-73
2023/08/18 02:18:02;;;;;;;15.13;8.30;;;;;;;17.36;98.12;101852.28;6090613;19;20011;-74
2023/08/18 02:20:09;;;;;;;15.40;8.93;;;;;;;17.33;98.19;101846.16;6089605;19;20007;-73
2023/08/18 02:22:14;;;;;;;14.48;8.52;;;;;;;17.39;98.02;101837.00;6092533;19;20038;-74
2023/08/18 02:24:19;;;;;;;16.30;8.82;;;;;;;17.28;98.57;101847.34;6093991;19;20042;-74
2023/08/18 02:26:27;;;;;;;15.88;8.80;;;;;;;17.29;98.60;101835.78;6092295;19;20011;-73
2023/08/18 02:28:32;;;;;;;15.07;7.95;;;;;;;17.25;98.75;101832.44;6092079;19;20010;-73
2023/08/18 02:30:40;;;;;;;15.38;7.72;;;;;;;17.25;99.21;101836.91;6095548;19;20376;-72
2023/08/18 02:32:44;;;;;;;18.63;9.38;;;;;;;17.24;99.06;101836.00;6085410;19;20006;-72
2023/08/18 02:34:49;;;;;;;15.00;8.48;;;;;;;17.17;99.13;101833.75;6094671;19;20014;-72
2023/08/18 02:36:54;;;;;;;18.33;9.38;;;;;;;17.18;99.31;101827.53;6095693;19;20970;-71
2023/08/18 02:38:59;;;;;;;15.40;8.85;;;;;;;17.13;99.56;101827.75;6092180;19;22425;-72
2023/08/18 02:41:05;;;;;;;16.13;8.70;;;;;;;17.09;99.69;101836.84;6093983;19;20059;-72
2023/08/18 02:43:10;;;;;;;15.25;8.68;;;;;;;17.11;99.27;101825.19;6100906;19;20078;-72
2023/08/18 02:45:15;;;;;;;14.40;8.73;;;;;;;17.06;99.58;101821.94;6100856;19;20028;-72
2023/08/18 02:47:22;;;;;;;14.77;8.40;;;;;;;17.04;99.92;101815.81;6101109;19;20038;-72
2023/08/18 02:49:28;;;;;;;15.15;8.75;;;;;;;17.04;99.83;101817.63;6100224;19;20461;-72
2023/08/18 02:51:34;;;;;;;15.23;8.70;;;;;;;17.07;99.73;101813.00;6099611;19;20017;-73
2023/08/18 02:53:41;;;;;;;17.45;9.50;;;;;;;17.07;99.61;101807.69;6098265;19;20015;-72
2023/08/18 02:55:46;;;;;;;16.10;9.50;;;;;;;16.95;100.00;101807.47;6100581;19;20013;-72
2023/08/18 02:57:56;;;;;;;18.17;9.05;;;;;;;16.84;100.00;101813.34;6098908;19;20511;-72
2023/08/18 03:00:02;;;;;;;17.70;9.57;;;;;;;16.80;100.00;101810.00;6102140;19;19998;-72
2023/08/18 03:02:08;;;;;;;19.65;9.02;;;;;;;16.84;100.00;101811.53;6095393;19;20019;-72
2023/08/18 03:04:15;;;;;;;17.95;9.40;;;;;;;16.78;100.00;101811.00;6097233;19;20122;-73
2023/08/18 03:06:23;;;;;;;17.35;8.80;;;;;;;16.81;100.00;101810.84;6098596;19;20014;-71
2023/08/18 03:08:28;;;;;;;15.90;9.05;;;;;;;16.80;100.00;101811.78;6093303;19;20324;-72
2023/08/18 03:10:34;;;;;;;19.55;9.90;;;;;;;16.80;100.00;101817.94;6102560;19;20011;-72
2023/08/18 03:12:39;;;;;;;20.10;9.27;;;;;;;16.78;100.00;101805.69;6091667;19;20011;-72
2023/08/18 03:14:44;;;;;;;18.42;10.23;;;;;;;16.78;100.00;101805.69;6098649;19;20003;-73
2023/08/18 03:16:49;;;;;;;18.58;9.52;;;;;;;16.75;100.00;101801.38;6100614;19;20036;-73
2023/08/18 03:18:55;;;;;;;18.35;9.68;;;;;;;16.70;100.00;101807.84;6098993;19;20014;-72
2023/08/18 03:21:04;;;;;;;18.40;9.35;;;;;;;16.71;100.00;101810.41;6097995;19;20034;-72
2023/08/18 03:23:07;;;;;;;18.75;10.63;;;;;;;16.75;100.00;101806.69;6094397;19;20482;-72
2023/08/18 03:25:12;;;;;;;20.38;9.90;;;;;;;16.73;100.00;101807.69;6096818;19;20486;-72
2023/08/18 03:27:15;;;;;;;16.95;8.77;;;;;;;16.79;100.00;101810.06;6097577;19;20226;-72
2023/08/18 03:29:21;;;;;;;17.98;9.02;;;;;;;16.81;100.00;101795.78;6095441;19;20450;-73
2023/08/18 03:31:29;;;;;;;18.40;9.43;;;;;;;16.82;100.00;101794.81;6096897;19;20006;-71
2023/08/18 03:33:38;;;;;;;20.48;10.60;;;;;;;16.87;100.00;101800.75;6097023;19;20017;-73
2023/08/18 03:35:43;;;;;;;19.05;9.45;;;;;;;16.91;100.00;101803.28;6091426;19;20010;-72
2023/08/18 03:37:51;;;;;;;20.58;10.68;;;;;;;16.89;100.00;101803.34;6096243;19;20047;-72
2023/08/18 03:39:54;;;;;;;17.83;9.55;;;;;;;16.83;100.00;101815.13;6095983;19;20006;-71
2023/08/18 03:41:59;;;;;;;18.73;9.05;;;;;;;16.88;100.00;101801.63;6095323;19;20014;-72
2023/08/18 03:44:08;;;;;;;19.65;9.90;;;;;;;16.89;100.00;101806.00;6101679;19;20015;-72
2023/08/18 03:46:26;;;;;;;17.77;9.80;;;;;;;16.83;100.00;101803.66;6101434;19;19998;-72
2023/08/18 03:48:36;;;;;;;17.25;9.00;;;;;;;16.83;100.00;101807.19;6095179;19;20689;-71
2023/08/18 03:50:39;;;;;;;19.27;8.82;;;;;;;16.84;100.00;101798.25;6094019;19;20009;-72
2023/08/18 03:52:44;;;;;;;16.15;8.05;;;;;;;16.86;100.00;101796.38;6091074;19;20019;-72
2023/08/18 03:54:52;;;;;;;17.88;9.70;;;;;;;16.77;100.00;101794.22;6097719;19;20034;-72
2023/08/18 03:56:59;;;;;;;19.13;9.90;;;;;;;16.84;100.00;101794.75;6095612;19;20585;-72
2023/08/18 03:59:05;;;;;;;14.88;8.88;;;;;;;16.79;100.00;101802.94;6095039;19;20002;-71
2023/08/18 04:01:22;;;;;;;19.10;9.00;;;;;;;16.74;100.00;101801.44;6099166;19;20362;-71
2023/08/18 04:03:27;;;;;;;16.92;8.88;;;;;;;16.70;100.00;101802.53;6095041;19;20398;-71
2023/08/18 04:05:32;;;;;;;14.52;7.55;;;;;;;16.65;100.00;101795.66;6098815;19;20772;-72
2023/08/18 04:07:37;;;;;;;18.08;10.07;;;;;;;16.61;100.00;101802.06;6087762;19;20471;-72
2023/08/18 04:09:42;;;;;;;14.75;7.18;;;;;;;16.62;100.00;101798.47;6097235;19;20007;-72
2023/08/18 04:11:58;;;;;;;17.40;8.27;;;;;;;16.63;100.00;101796.66;6092725;19;20128;-72
2023/08/18 04:14:05;;;;;;;14.48;8.05;;;;;;;16.59;100.00;101795.97;6093724;19;20013;-73
2023/08/18 04:16:10;;;;;;;16.33;7.75;;;;;;;16.65;100.00;101806.28;6096750;19;20011;-72
2023/08/18 04:18:15;;;;;;;15.13;8.15;;;;;;;16.67;100.00;101815.03;6097831;19;20010;-71
2023/08/18 04:20:21;;;;;;;13.90;7.88;;;;;;;16.65;100.00;101816.88;6097231;19;20010;-72
2023/08/18 04:22:25;;;;;;;15.90;7.63;;;;;;;16.63;100.00;101820.56;6096719;19;20019;-71
2023/08/18 04:24:30;;;;;;;14.38;7.75;;;;;;;16.66;100.00;101815.94;6092967;19;20541;-72
2023/08/18 04:26:37;;;;;;;16.92;8.45;;;;;;;16.62;100.00;101817.06;6095600;19;20069;-71
2023/08/18 04:28:46;;;;;;;16.00;8.02;;;;;;;16.58;100.00;101810.16;6092823;19;20010;-73
2023/08/18 04:30:51;;;;;;;14.70;7.05;;;;;;;16.64;100.00;101825.81;6093569;19;20003;-73
2023/08/18 04:32:57;;;;;;;12.82;7.15;;;;;;;16.65;100.00;101819.53;6091932;19;20006;-74
2023/08/18 04:35:03;;;;;;;17.88;8.27;;;;;;;16.61;100.00;101818.00;6082769;19;20002;-71
2023/08/18 04:37:08;;;;;;;15.43;8.30;;;;;;;16.70;100.00;101821.13;6094652;19;20011;-71
2023/08/18 04:39:10;;;;;;;17.52;8.85;;;;;;;16.60;100.00;101813.59;6098218;19;20498;-71
2023/08/18 04:41:15;;;;;;;;;;;;;;;16.56;100.00;101812.06;6095373;19;20018;-71
2023/08/18 04:43:17;;;;;;;15.70;7.32;;;;;;;16.59;100.00;101811.91;6086044;19;20347;-73
2023/08/18 04:45:25;;;;;;;18.52;8.80;;;;;;;16.60;100.00;101818.06;6091318;19;20015;-72
2023/08/18 04:47:30;;;;;;;15.55;7.95;;;;;;;16.63;100.00;101812.59;6092622;19;20094;-72
2023/08/18 04:49:35;;;;;;;16.83;7.95;;;;;;;16.65;100.00;101814.25;6094582;19;20006;-73
2023/08/18 04:51:41;;;;;;;16.23;8.38;;;;;;;16.65;100.00;101816.03;6093328;19;20356;-72
2023/08/18 04:53:46;;;;;;;18.85;8.57;;;;;;;16.62;100.00;101816.19;6092614;19;19998;-72
2023/08/18 04:55:54;;;;;;;17.38;8.50;;;;;;;16.73;100.00;101820.97;6095357;19;20007;-72
2023/08/18 04:57:59;;;;;;;15.60;8.77;;;;;;;16.69;100.00;101814.94;6092728;19;20470;-72
2023/08/18 05:00:06;;;;;;;15.93;8.05;;;;;;;16.77;100.00;101818.13;6091707;19;20193;-72
2023/08/18 05:02:14;;;;;;;17.27;7.88;;;;;;;16.72;100.00;101816.56;6094558;19;20113;-73
2023/08/18 05:04:20;;;;;;;14.07;8.18;;;;;;;16.70;100.00;101818.47;6094363;19;20566;-72
2023/08/18 05:06:26;;;;;;;18.02;9.27;;;;;;;16.65;100.00;101822.19;6094085;19;20775;-72
2023/08/18 05:08:28;;;;;;;22.10;10.32;;;;;;;16.73;100.00;101819.16;6092277;19;20554;-72
2023/08/18 05:10:33;;;;;;;;;;;;;;;16.80;100.00;101811.78;6095458;19;20017;-71
2023/08/18 05:12:39;;;;;;;17.88;7.97;;;;;;;16.78;100.00;101805.69;6090822;19;20270;-72
2023/08/18 05:14:44;;;;;;;17.23;8.88;;;;;;;16.81;100.00;101801.06;6093562;19;20002;-72
2023/08/18 05:16:47;;;;;;;16.85;8.13;;;;;;;16.76;100.00;101800.41;6090735;19;20002;-72
2023/08/18 05:18:55;;;;;;;15.25;7.60;;;;;;;16.80;100.00;101806.47;6096743;19;20041;-72
2023/08/18 05:21:01;;;;;;;17.08;8.68;;;;;;;16.83;100.00;101801.00;6085317;19;20021;-73
2023/08/18 05:23:05;;;;;;;19.90;9.27;;;;;;;16.72;100.00;101795.34;6099108;19;20013;-74
2023/08/18 05:25:11;;;;;;;17.67;9.63;;;;;;;16.81;100.00;101802.88;6072011;19;20114;-73
2023/08/18 05:27:58;;;;;;;16.25;8.27;;;;;;;16.87;100.00;101799.91;6090982;19;20365;-73
2023/08/18 05:30:19;;;;;;;15.07;7.63;;;;;;;16.88;100.00;101796.31;6097119;19;20009;-72
2023/08/18 05:32:45;;;;;;;16.92;8.77;;;;;;;16.86;100.00;101792.88;6095563;19;20007;-72
2023/08/18 05:34:59;;;;;;;17.67;7.95;;;;;;;16.88;100.00;101796.31;6089936;19;20545;-72
2023/08/18 05:37:04;;;;;;;15.00;8.15;;;;;;;16.92;100.00;101795.22;6100261;19;20011;-72
2023/08/18 05:39:09;;;;;;;14.70;7.97;;;;;;;16.97;100.00;101794.97;6104834;19;20487;-72
2023/08/18 05:41:16;;;;;;;17.45;8.48;;;;;;;16.96;100.00;101798.59;6104028;19;20517;-72
2023/08/18 05:43:21;;;;;;;16.60;8.10;;;;;;;16.95;100.00;101794.19;6102475;19;20038;-72
2023/08/18 05:45:29;;;;;;;17.88;8.88;;;;;;;17.00;100.00;101794.81;6103981;19;20007;-72
2023/08/18 05:47:37;;;;;;;16.48;7.22;;;;;;;17.00;100.00;101795.66;6098529;19;20010;-72
2023/08/18 05:49:42;;;;;;;15.70;7.80;;;;;;;16.93;100.00;101790.75;6099545;19;20025;-72
2023/08/18 05:51:50;;;;;;;14.02;7.80;;;;;;;17.01;100.00;101785.91;6103959;19;20027;-72
2023/08/18 05:53:56;;;;;;;13.10;7.05;;;;;;;16.94;100.00;101782.72;6098320;19;20351;-72
2023/08/18 05:56:01;;;;;;;14.25;7.82;;;;;;;17.07;100.00;101785.59;6101294;19;20010;-72
2023/08/18 05:58:07;;;;;;;15.77;7.47;;;;;;;17.09;100.00;101789.03;6100547;19;20490;-72
2023/08/18 06:00:14;;;;;;;14.75;7.95;;;;;;;17.09;100.00;101781.91;6099619;19;20015;-72
2023/08/18 06:02:19;;;;;;;13.95;7.47;;;;;;;17.18;100.00;101782.38;6099794;19;20082;-73
2023/08/18 06:04:24;;;;;;;15.30;8.15;;;;;;;17.21;100.00;101782.19;6097438;19;20007;-72
2023/08/18 06:06:29;;;;;;;18.35;7.95;;;;;;;17.23;100.00;101786.50;6102585;19;20563;-73
2023/08/18 06:08:40;;;;;;;15.30;7.68;;;;;;;17.20;100.00;101791.97;6101483;19;20010;-72
2023/08/18 06:10:45;;;;;;;15.88;7.70;;;;;;;17.28;100.00;101792.41;6102725;19;20132;-73
2023/08/18 06:12:51;;;;;;;16.00;8.40;;;;;;;17.24;100.00;101795.31;6107112;19;20038;-72
2023/08/18 06:14:56;;;;;;;16.35;7.25;;;;;;;17.38;100.00;101795.44;6104950;19;20011;-72
2023/08/18 06:17:01;;;;;;;12.73;7.05;;;;;;;17.38;100.00;101781.28;6104532;19;20074;-71
2023/08/18 06:19:08;;;;;;;16.15;8.10;;;;;;;17.47;100.00;101791.44;6105602;19;20003;-72
2023/08/18 06:21:13;;;;;;;15.05;7.97;;;;;;;17.63;99.02;101792.31;6107086;19;20521;-72
2023/08/18 06:23:18;;;;;;;16.17;8.13;;;;;;;17.52;99.63;101792.03;6102101;19;20003;-73
2023/08/18 06:25:36;;;;;;;15.05;7.60;;;;;;;17.62;98.92;101787.09;6105552;19;20371;-73
2023/08/18 06:27:41;;;;;;;14.30;7.75;;;;;;;17.59;99.03;101785.47;6105867;19;20091;-72
2023/08/18 06:29:46;;;;;;;15.05;8.00;;;;;;;17.65;98.85;101778.94;6108023;19;20027;-73
2023/08/18 06:31:57;;;;;;;14.05;7.18;;;;;;;17.72;98.54;101780.28;6107914;19;20059;-76
2023/08/18 06:34:05;;;;;;;16.63;8.55;;;;;;;17.66;98.74;101780.66;6105848;19;20002;-73
2023/08/18 06:36:10;;;;;;;18.08;8.68;;;;;;;17.75;98.57;101778.34;6107751;19;20041;-73
2023/08/18 06:38:21;;;;;;;16.80;7.65;;;;;;;17.79;98.04;101784.38;6084310;19;20019;-73
2023/08/18 06:40:31;;;;;;;16.17;8.40;;;;;;;17.74;98.47;101789.03;6110033;19;20427;-73
2023/08/18 06:42:37;;;;;;;15.23;7.47;;;;;;;17.81;97.70;101787.81;6109857;19;20594;-72
2023/08/18 06:44:42;;;;;;;13.75;7.32;;;;;;;17.83;97.33;101788.59;6110110;19;20019;-73
2023/08/18 06:46:47;;;;;;;16.35;7.85;;;;;;;17.83;97.36;101791.25;6104855;19;20471;-73
2023/08/18 06:49:00;;;;;;;15.35;7.72;;;;;;;17.82;97.45;101791.31;6108233;19;20030;-74
2023/08/18 06:51:06;;;;;;;14.82;8.20;;;;;;;17.78;97.62;101795.91;6104375;19;20091;-72
2023/08/18 06:53:11;;;;;;;15.35;9.50;;;;;;;17.84;97.89;101795.59;6100143;19;20031;-73
2023/08/18 06:55:16;;;;;;;16.65;7.93;;;;;;;17.83;97.58;101804.53;6101112;19;20038;-72
2023/08/18 06:57:30;;;;;;;13.95;8.13;;;;;;;17.91;96.96;101802.31;6101480;19;20007;-72
2023/08/18 06:59:36;;;;;;;16.98;8.48;;;;;;;17.89;96.73;101790.88;6099721;19;20018;-71
2023/08/18 07:01:41;;;;;;;14.80;7.68;;;;;;;17.91;96.60;101799.66;6101429;19;20336;-72
2023/08/18 07:03:47;;;;;;;15.07;7.45;;;;;;;17.88;96.89;101797.16;6101978;19;20789;-71
2023/08/18 07:05:59;;;;;;;16.33;8.00;;;;;;;18.09;96.03;101796.88;6100987;19;20018;-73
2023/08/18 07:08:04;;;;;;;17.90;8.50;;;;;;;18.12;95.84;101791.41;6100904;19;20098;-73
2023/08/18 07:10:11;;;;;;;18.48;8.93;;;;;;;18.13;95.61;101785.13;6097724;19;20074;-72
2023/08/18 07:12:16;;;;;;;16.48;8.10;;;;;;;18.20;95.78;101789.16;6079831;19;20002;-71
2023/08/18 07:14:25;;;;;;;13.77;7.10;;;;;;;18.31;95.67;101793.84;6094945;19;20360;-74
2023/08/18 07:16:27;;;;;;;15.13;7.68;;;;;;;18.34;95.07;101781.22;6102208;19;20578;-73
2023/08/18 07:18:35;;;;;;;;;;;;;;;18.54;94.07;101779.22;6106371;19;20002;-72
2023/08/18 07:20:40;;;;;;;15.75;7.55;;;;;;;18.62;93.71;101779.63;6098077;19;19915;-72
2023/08/18 07:22:45;;;;;;;16.17;8.05;;;;;;;18.53;93.86;101769.50;6101260;19;20021;-72
2023/08/18 07:24:51;;;;;;;17.58;8.75;;;;;;;18.59;93.47;101769.16;6100090;19;20010;-72
2023/08/18 07:26:58;;;;;;;14.85;6.82;;;;;;;18.57;93.56;101765.72;6099691;19;20027;-73
2023/08/18 07:29:06;;;;;;;15.32;7.90;;;;;;;18.72;92.41;101764.81;6081602;19;20086;-73
2023/08/18 07:31:17;;;;;;;14.70;8.27;;;;;;;18.88;92.36;101769.22;6100753;19;20039;-72
2023/08/18 07:33:23;;;;;;;15.15;7.72;;;;;;;18.95;91.50;101766.09;6096613;19;20014;-73
2023/08/18 07:35:28;;;;;;;16.20;7.70;;;;;;;19.00;90.98;101768.47;6099604;19;20017;-72
2023/08/18 07:37:35;;;;;;;15.02;7.95;;;;;;;19.27;89.89;101765.91;6097752;19;20018;-73
2023/08/18 07:39:45;;;;;;;15.23;8.10;;;;;;;19.55;88.08;101753.53;6094905;19;20006;-73
2023/08/18 07:41:51;;;;;;;16.13;7.78;;;;;;;19.97;86.83;101762.41;6102483;19;20014;-73
2023/08/18 07:43:59;;;;;;;15.63;8.20;;;;;;;20.16;85.48;101755.75;6098280;19;20011;-73
2023/08/18 07:46:05;;;;;;;16.77;8.20;;;;;;;20.23;84.03;101760.69;6100379;19;20038;-74
2023/08/18 07:48:14;;;;;;;15.73;8.40;;;;;;;20.22;84.75;101754.50;6103438;19;20701;-73
2023/08/18 07:50:19;;;;;;;17.98;8.77;;;;;;;20.52;83.47;101756.06;6101639;19;20043;-74
2023/08/18 07:52:25;;;;;;;16.17;8.10;;;;;;;20.70;82.46;101753.97;6093115;19;20011;-74
2023/08/18 07:54:31;;;;;;;16.60;7.95;;;;;;;21.10;81.22;101744.03;6097418;19;20141;-73
2023/08/18 07:56:37;;;;;;;19.90;8.65;;;;;;;20.96;81.27;101744.16;6097762;19;20038;-73
2023/08/18 07:58:42;;;;;;;15.27;8.07;;;;;;;21.05;80.19;101738.16;6099415;19;20150;-73
2023/08/18 08:00:48;;;;;;;17.77;8.57;;;;;;;21.12;79.85;101741.28;6101339;19;20097;-73
2023/08/18 08:02:53;;;;;;;16.60;8.65;;;;;;;21.18;79.27;101744.34;6100298;19;20011;-74
2023/08/18 08:05:05;;;;;;;21.13;9.80;;;;;;;21.07;79.52;101757.63;6100851;19;20162;-74
2023/08/18 08:07:10;;;;;;;17.55;10.35;;;;;;;20.85;81.47;101750.22;6097055;19;20408;-71
2023/08/18 08:09:15;;;;;;;19.25;9.07;;;;;;;21.52;79.35;101746.47;6094284;19;20470;-72
2023/08/18 08:11:20;;;;;;;19.50;9.55;;;;;;;21.84;77.81;101741.44;6095661;19;20011;-72
2023/08/18 08:13:25;;;;;;;19.58;8.80;;;;;;;22.13;76.37;101752.63;6101140;19;20091;-70
2023/08/18 08:15:31;;;;;;;17.48;9.52;;;;;;;22.14;75.91;101754.34;6098174;19;20011;-70
2023/08/18 08:17:39;;;;;;;19.02;9.40;;;;;;;21.99;76.01;101755.50;6099608;19;20701;-71
2023/08/18 08:19:45;;;;;;;21.08;10.18;;;;;;;22.01;75.96;101762.47;6097569;19;20019;-71
2023/08/18 08:21:58;;;;;;;20.05;8.95;;;;;;;21.99;75.86;101753.69;6099976;19;20527;-71
2023/08/18 08:24:04;;;;;;;19.52;9.52;;;;;;;21.78;76.54;101748.09;6098020;19;20459;-71
2023/08/18 08:26:10;;;;;;;17.75;9.07;;;;;;;21.59;77.99;101745.03;6094420;19;20432;-71
2023/08/18 08:28:15;;;;;;;19.73;10.85;;;;;;;21.39;78.83;101747.34;6100835;19;20030;-74
2023/08/18 08:30:25;;;;;;;17.33;8.82;;;;;;;21.36;78.64;101744.84;6099487;19;20046;-72
2023/08/18 08:32:40;;;;;;;17.83;8.68;;;;;;;21.86;77.36;101751.06;6100729;19;20006;-71
2023/08/18 08:34:51;;;;;;;22.23;11.13;;;;;;;21.71;77.51;101752.16;6097022;19;20114;-71
2023/08/18 08:36:59;;;;;;;22.77;9.85;;;;;;;22.10;77.12;101760.91;6101087;19;20018;-72
2023/08/18 08:39:05;;;;;;;20.35;10.05;;;;;;;22.62;75.02;101757.00;6087637;19;20503;-71
2023/08/18 08:41:10;;;;;;;18.77;10.05;;;;;;;22.91;73.55;101753.88;6100425;19;20006;-71
2023/08/18 08:43:16;;;;;;;21.63;10.50;;;;;;;23.13;71.98;101759.28;6098510;19;20003;-75
2023/08/18 08:45:21;;;;;;;19.20;10.35;;;;;;;22.87;73.35;101760.44;6095287;19;21055;-78
2023/08/18 08:47:29;;;;;;;20.80;9.80;;;;;;;22.59;74.36;101762.56;6096491;19;20039;-75
2023/08/18 08:49:37;;;;;;;21.23;11.20;;;;;;;22.18;76.31;101769.22;6100247;19;21100;-77
2023/08/18 08:51:46;;;;;;;19.05;9.60;;;;;;;22.27;76.06;101773.91;6101278;19;20038;-75
2023/08/18 08:54:01;;;;;;;19.23;9.77;;;;;;;22.00;76.89;101773.25;6094768;19;20692;-75
2023/08/18 08:56:10;;;;;;;20.38;9.95;;;;;;;22.01;76.44;101775.84;6103093;19;20467;-76
2023/08/18 08:58:15;;;;;;;22.08;11.93;;;;;;;22.18;76.32;101784.44;6100187;19;20467;-77
2023/08/18 09:00:22;;;;;;;26.02;16.85;;;;;;;21.83;76.30;101779.88;6096520;19;20007;-74
2023/08/18 09:02:32;;;;;;;20.95;10.77;;;;;;;22.02;76.84;101776.69;6095207;19;20014;-76
2023/08/18 09:04:38;;;;;;;18.48;9.80;;;;;;;22.26;76.35;101782.06;6096491;19;20074;-73
2023/08/18 09:06:43;;;;;;;23.67;10.65;;;;;;;22.12;76.67;101775.03;6100344;19;20848;-72
2023/08/18 09:08:48;;;;;;;25.00;11.68;;;;;;;21.95;76.93;101772.75;6098973;19;20013;-75
2023/08/18 09:11:00;;;;;;;29.35;12.60;;;;;;;22.18;75.93;101769.22;6096275;19;20131;-73
2023/08/18 09:16:11;;;;;;;21.05;11.15;;;;;;;22.40;75.69;101781.03;6085822;19;20010;-74
2023/08/18 09:18:17;;;;;;;24.80;12.25;;;;;;;22.41;75.46;101780.03;6077749;19;20475;-74
2023/08/18 09:20:24;;;;;;;22.20;11.60;;;;;;;22.04;76.05;101780.09;6095700;19;20029;-74
2023/08/18 09:22:36;;;;;;;25.50;10.77;;;;;;;21.94;76.70;101773.72;6100228;19;20640;-73
2023/08/18 09:24:48;;;;;;;23.15;10.50;;;;;;;22.08;77.29;101774.38;6098419;19;20539;-74
2023/08/18 09:26:56;;;;;;;21.23;12.00;;;;;;;22.25;76.33;101762.47;6098723;19;20576;-73
2023/08/18 09:29:02;;;;;;;25.17;12.48;;;;;;;22.33;76.05;101756.53;6094130;19;20402;-73
2023/08/18 09:31:07;;;;;;;22.63;11.80;;;;;;;22.16;76.38;101757.75;6097612;19;20463;-72
2023/08/18 09:33:12;;;;;;;21.75;12.30;;;;;;;22.76;74.98;101748.72;6091068;19;20015;-72
2023/08/18 09:35:24;;;;;;;25.10;11.63;;;;;;;22.46;75.48;101751.09;6094789;19;20109;-72
2023/08/18 09:37:36;;;;;;;23.35;12.43;;;;;;;22.93;74.06;101751.91;6098584;19;20074;-72
2023/08/18 09:39:41;;;;;;;21.50;11.25;;;;;;;23.03;73.31;101747.56;6099494;19;20027;-74
2023/08/18 09:41:49;;;;;;;21.23;11.35;;;;;;;23.33;72.93;101756.81;6097507;19;20015;-72
2023/08/18 09:44:04;;;;;;;23.15;12.50;;;;;;;23.04;72.89;101753.78;6096030;19;20009;-74